createdAt,value
2022-12-08T00:00:00.610Z,97608.00
2022-12-08T00:00:10.611Z,97610.00
2022-12-08T00:00:20.550Z,97610.00
2022-12-08T00:00:30.589Z,97610.00
2022-12-08T00:00:40.560Z,97610.00
2022-12-08T00:00:50.581Z,97610.00
2022-12-08T00:01:00.550Z,97608.00
2022-12-08T00:01:10.584Z,97608.00
2022-12-08T00:01:22.023Z,97612.00
2022-12-08T00:01:30.566Z,97610.00
2022-12-08T00:01:42.050Z,97610.00
2022-12-08T00:01:50.708Z,97606.00
2022-12-08T00:02:00.674Z,97608.00
2022-12-08T00:02:10.790Z,97610.00
2022-12-08T00:02:20.813Z,97606.00
2022-12-08T00:02:30.649Z,97608.00
2022-12-08T00:02:40.650Z,97610.00
2022-12-08T00:02:50.735Z,97610.00
2022-12-08T00:03:00.814Z,97610.00
2022-12-08T00:03:10.773Z,97608.00
2022-12-08T00:03:20.836Z,97608.00
2022-12-08T00:03:30.808Z,97610.00
2022-12-08T00:03:40.781Z,97610.00
2022-12-08T00:03:50.741Z,97608.00
2022-12-08T00:04:00.681Z,97610.00
2022-12-08T00:04:10.719Z,97608.00
2022-12-08T00:04:20.521Z,97608.00
2022-12-08T00:04:30.789Z,97608.00
2022-12-08T00:04:40.712Z,97610.00
2022-12-08T00:04:50.851Z,97610.00
2022-12-08T00:05:01.254Z,97610.00
2022-12-08T00:05:10.825Z,97610.00
2022-12-08T00:05:20.752Z,97610.00
2022-12-08T00:05:30.924Z,97608.00
2022-12-08T00:05:40.821Z,97608.00
2022-12-08T00:05:50.765Z,97608.00
2022-12-08T00:06:00.810Z,97606.00
2022-12-08T00:06:10.526Z,97608.00
2022-12-08T00:06:20.541Z,97608.00
2022-12-08T00:06:30.799Z,97606.00
2022-12-08T00:06:41.991Z,97608.00
2022-12-08T00:06:50.868Z,97608.00
2022-12-08T00:07:00.503Z,97608.00
2022-12-08T00:07:10.522Z,97604.00
2022-12-08T00:07:20.522Z,97602.00
2022-12-08T00:07:30.539Z,97604.00
2022-12-08T00:07:41.992Z,97606.00
2022-12-08T00:07:50.596Z,97606.00
2022-12-08T00:08:00.623Z,97602.00
2022-12-08T00:08:10.613Z,97604.00
2022-12-08T00:08:20.571Z,97606.00
2022-12-08T00:08:30.582Z,97606.00
2022-12-08T00:08:41.968Z,97606.00
2022-12-08T00:08:51.984Z,97608.00
2022-12-08T00:09:00.513Z,97608.00
2022-12-08T00:09:10.502Z,97606.00
2022-12-08T00:09:20.531Z,97608.00
2022-12-08T00:09:37.964Z,97608.00
2022-12-08T00:09:41.569Z,97606.00
2022-12-08T00:09:53.021Z,97606.00
2022-12-08T00:10:10.435Z,97606.00
2022-12-08T00:10:46.724Z,97606.00
2022-12-08T00:10:47.845Z,97604.00
2022-12-08T00:10:48.989Z,97608.00
2022-12-08T00:10:49.274Z,97604.00
2022-12-08T00:10:55.208Z,97608.00
2022-12-08T00:11:04.205Z,97604.00
2022-12-08T00:11:14.675Z,97606.00
2022-12-08T00:11:25.682Z,97604.00
2022-12-08T00:11:35.152Z,97604.00
2022-12-08T00:11:44.652Z,97604.00
2022-12-08T00:11:54.191Z,97604.00
2022-12-08T00:12:04.202Z,97602.00
2022-12-08T00:12:14.227Z,97604.00
2022-12-08T00:12:24.192Z,97600.00
2022-12-08T00:12:34.243Z,97604.00
2022-12-08T00:12:44.194Z,97604.00
2022-12-08T00:12:55.657Z,97604.00
2022-12-08T00:13:04.183Z,97602.00
2022-12-08T00:13:14.213Z,97602.00
2022-12-08T00:13:25.660Z,97604.00
2022-12-08T00:13:35.643Z,97602.00
2022-12-08T00:13:44.221Z,97602.00
2022-12-08T00:13:55.190Z,97600.00
2022-12-08T00:14:04.204Z,97600.00
2022-12-08T00:14:15.664Z,97600.00
2022-12-08T00:14:24.186Z,97594.00
2022-12-08T00:14:34.205Z,97600.00
2022-12-08T00:14:45.285Z,97594.00
2022-12-08T00:14:54.202Z,97592.00
2022-12-08T00:15:04.613Z,97594.00
2022-12-08T00:15:15.632Z,97594.00
2022-12-08T00:15:24.182Z,97592.00
2022-12-08T00:15:35.643Z,97592.00
2022-12-08T00:15:45.130Z,97592.00
2022-12-08T00:15:54.193Z,97591.00
2022-12-08T00:16:04.317Z,97591.00
2022-12-08T00:16:14.992Z,97591.00
2022-12-08T00:16:24.391Z,97591.00
2022-12-08T00:16:34.200Z,97591.00
2022-12-08T00:16:44.222Z,97589.00
2022-12-08T00:16:54.253Z,97589.00
2022-12-08T00:17:04.257Z,97589.00
2022-12-08T00:17:14.384Z,97589.00
2022-12-08T00:17:24.163Z,97591.00
2022-12-08T00:17:34.185Z,97589.00
2022-12-08T00:17:44.187Z,97589.00
2022-12-08T00:17:54.173Z,97589.00
2022-12-08T00:18:04.162Z,97589.00
2022-12-08T00:18:14.180Z,97589.00
2022-12-08T00:18:25.587Z,97589.00
2022-12-08T00:18:34.164Z,97589.00
2022-12-08T00:18:44.986Z,97591.00
2022-12-08T00:18:54.154Z,97589.00
2022-12-08T00:19:04.166Z,97591.00
2022-12-08T00:19:14.932Z,97591.00
2022-12-08T00:19:24.164Z,97591.00
2022-12-08T00:19:35.614Z,97589.00
2022-12-08T00:19:44.174Z,97589.00
2022-12-08T00:19:54.145Z,97591.00
2022-12-08T00:20:05.595Z,97589.00
2022-12-08T00:20:14.144Z,97591.00
2022-12-08T00:20:25.581Z,97591.00
2022-12-08T00:20:34.147Z,97591.00
2022-12-08T00:20:44.135Z,97589.00
2022-12-08T00:20:54.153Z,97589.00
2022-12-08T00:21:04.181Z,97589.00
2022-12-08T00:21:14.142Z,97587.00
2022-12-08T00:21:25.593Z,97589.00
2022-12-08T00:21:34.135Z,97591.00
2022-12-08T00:21:44.131Z,97589.00
2022-12-08T00:21:55.593Z,97589.00
2022-12-08T00:22:05.584Z,97589.00
2022-12-08T00:22:15.575Z,97589.00
2022-12-08T00:22:24.146Z,97585.00
2022-12-08T00:22:34.113Z,97589.00
2022-12-08T00:22:44.156Z,97587.00
2022-12-08T00:22:54.134Z,97585.00
2022-12-08T00:23:04.115Z,97587.00
2022-12-08T00:23:14.146Z,97585.00
2022-12-08T00:23:24.145Z,97585.00
2022-12-08T00:23:34.152Z,97585.00
2022-12-08T00:23:44.144Z,97585.00
2022-12-08T00:23:54.212Z,97583.00
2022-12-08T00:24:04.092Z,97587.00
2022-12-08T00:24:14.118Z,97587.00
2022-12-08T00:24:25.563Z,97585.00
2022-12-08T00:24:35.567Z,97587.00
2022-12-08T00:24:44.124Z,97587.00
2022-12-08T00:24:54.104Z,97585.00
2022-12-08T00:25:04.390Z,97585.00
2022-12-08T00:25:14.135Z,97587.00
2022-12-08T00:25:24.102Z,97587.00
2022-12-08T00:25:34.110Z,97585.00
2022-12-08T00:25:45.077Z,97585.00
2022-12-08T00:25:54.113Z,97587.00
2022-12-08T00:26:04.112Z,97587.00
2022-12-08T00:26:14.211Z,97587.00
2022-12-08T00:26:24.213Z,97581.00
2022-12-08T00:26:34.086Z,97581.00
2022-12-08T00:26:44.115Z,97585.00
2022-12-08T00:26:54.184Z,97581.00
2022-12-08T00:27:04.213Z,97585.00
2022-12-08T00:27:14.146Z,97581.00
2022-12-08T00:27:24.194Z,97581.00
2022-12-08T00:27:34.216Z,97581.00
2022-12-08T00:27:44.145Z,97581.00
2022-12-08T00:27:54.187Z,97581.00
2022-12-08T00:28:04.230Z,97581.00
2022-12-08T00:28:14.153Z,97581.00
2022-12-08T00:28:24.189Z,97579.00
2022-12-08T00:28:34.054Z,97581.00
2022-12-08T00:28:44.196Z,97581.00
2022-12-08T00:28:55.027Z,97579.00
2022-12-08T00:29:04.230Z,97581.00
2022-12-08T00:29:17.292Z,97581.00
2022-12-08T00:29:25.513Z,97579.00
2022-12-08T00:29:34.090Z,97581.00
2022-12-08T00:29:44.056Z,97577.00
2022-12-08T00:29:54.068Z,97581.00
2022-12-08T00:30:04.235Z,97581.00
2022-12-08T00:30:14.065Z,97579.00
2022-12-08T00:30:24.105Z,97577.00
2022-12-08T00:30:34.066Z,97579.00
2022-12-08T00:30:44.116Z,97579.00
2022-12-08T00:30:55.517Z,97577.00
2022-12-08T00:31:04.086Z,97577.00
2022-12-08T00:31:14.277Z,97577.00
2022-12-08T00:31:25.557Z,97577.00
2022-12-08T00:31:34.240Z,97579.00
2022-12-08T00:31:45.060Z,97577.00
2022-12-08T00:31:54.120Z,97577.00
2022-12-08T00:32:04.278Z,97577.00
2022-12-08T00:32:15.067Z,97577.00
2022-12-08T00:32:24.135Z,97577.00
2022-12-08T00:32:35.530Z,97577.00
2022-12-08T00:32:44.087Z,97577.00
2022-12-08T00:32:55.532Z,97577.00
2022-12-08T00:33:04.055Z,97579.00
2022-12-08T00:33:14.874Z,97575.00
2022-12-08T00:33:24.082Z,97577.00
2022-12-08T00:33:34.067Z,97577.00
2022-12-08T00:33:44.076Z,97577.00
2022-12-08T00:33:54.056Z,97577.00
2022-12-08T00:34:04.086Z,97577.00
2022-12-08T00:34:15.025Z,97577.00
2022-12-08T00:34:25.507Z,97575.00
2022-12-08T00:34:34.046Z,97579.00
2022-12-08T00:34:44.097Z,97575.00
2022-12-08T00:34:55.504Z,97575.00
2022-12-08T00:35:05.795Z,97577.00
2022-12-08T00:35:14.061Z,97577.00
2022-12-08T00:35:25.497Z,97579.00
2022-12-08T00:35:38.775Z,97573.00
2022-12-08T00:35:46.055Z,97573.00
2022-12-08T00:35:55.090Z,97573.00
2022-12-08T00:36:05.876Z,97575.00
2022-12-08T00:36:15.078Z,97575.00
2022-12-08T00:36:25.098Z,97575.00
2022-12-08T00:36:35.074Z,97575.00
2022-12-08T00:36:45.107Z,97575.00
2022-12-08T00:36:55.099Z,97577.00
2022-12-08T00:37:05.085Z,97577.00
2022-12-08T00:37:16.535Z,97573.00
2022-12-08T00:37:25.066Z,97573.00
2022-12-08T00:37:36.545Z,97573.00
2022-12-08T00:37:45.106Z,97573.00
2022-12-08T00:38:00.781Z,97573.00
2022-12-08T00:38:07.337Z,97577.00
2022-12-08T00:38:15.875Z,97575.00
2022-12-08T00:38:26.407Z,97575.00
2022-12-08T00:38:35.848Z,97575.00
2022-12-08T00:38:47.327Z,97577.00
2022-12-08T00:38:55.867Z,97573.00
2022-12-08T00:39:07.338Z,97577.00
2022-12-08T00:39:15.864Z,97575.00
2022-12-08T00:39:26.843Z,97575.00
2022-12-08T00:39:35.875Z,97577.00
2022-12-08T00:39:45.895Z,97573.00
2022-12-08T00:39:57.327Z,97575.00
2022-12-08T00:40:06.308Z,97575.00
2022-12-08T00:40:16.384Z,97575.00
2022-12-08T00:40:25.857Z,97575.00
2022-12-08T00:40:35.878Z,97575.00
2022-12-08T00:40:45.864Z,97577.00
2022-12-08T00:40:55.882Z,97575.00
2022-12-08T00:41:06.155Z,97577.00
2022-12-08T00:41:15.877Z,97577.00
2022-12-08T00:41:27.297Z,97577.00
2022-12-08T00:41:35.857Z,97575.00
2022-12-08T00:41:47.307Z,97575.00
2022-12-08T00:41:57.307Z,97577.00
2022-12-08T00:42:05.849Z,97579.00
2022-12-08T00:42:15.878Z,97577.00
2022-12-08T00:42:27.296Z,97577.00
2022-12-08T00:42:36.469Z,97575.00
2022-12-08T00:42:45.957Z,97579.00
2022-12-08T00:42:55.853Z,97577.00
2022-12-08T00:43:07.317Z,97579.00
2022-12-08T00:43:16.506Z,97577.00
2022-12-08T00:43:26.558Z,97575.00
2022-12-08T00:43:35.847Z,97577.00
2022-12-08T00:43:45.847Z,97575.00
2022-12-08T00:43:55.853Z,97579.00
2022-12-08T00:44:07.299Z,97577.00
2022-12-08T00:44:15.848Z,97577.00
2022-12-08T00:44:25.840Z,97579.00
2022-12-08T00:44:35.827Z,97577.00
2022-12-08T00:44:45.915Z,97579.00
2022-12-08T00:44:55.845Z,97577.00
2022-12-08T00:45:05.837Z,97581.00
2022-12-08T00:45:15.827Z,97581.00
2022-12-08T00:45:25.849Z,97575.00
2022-12-08T00:45:35.856Z,97583.00
2022-12-08T00:45:45.872Z,97579.00
2022-12-08T00:45:55.864Z,97581.00
2022-12-08T00:46:05.883Z,97579.00
2022-12-08T00:46:15.900Z,97579.00
2022-12-08T00:46:25.851Z,97581.00
2022-12-08T00:46:37.286Z,97579.00
2022-12-08T00:46:45.817Z,97579.00
2022-12-08T00:46:57.277Z,97579.00
2022-12-08T00:47:05.815Z,97579.00
2022-12-08T00:47:17.749Z,97579.00
2022-12-08T00:47:25.818Z,97579.00
2022-12-08T00:47:37.338Z,97579.00
2022-12-08T00:47:45.824Z,97581.00
2022-12-08T00:47:55.810Z,97581.00
2022-12-08T00:48:05.826Z,97579.00
2022-12-08T00:48:15.817Z,97581.00
2022-12-08T00:48:25.820Z,97581.00
2022-12-08T00:48:35.826Z,97579.00
2022-12-08T00:48:47.295Z,97579.00
2022-12-08T00:48:57.266Z,97577.00
2022-12-08T00:49:05.801Z,97577.00
2022-12-08T00:49:17.237Z,97577.00
2022-12-08T00:49:25.790Z,97577.00
2022-12-08T00:49:35.800Z,97575.00
2022-12-08T00:49:45.797Z,97575.00
2022-12-08T00:49:55.805Z,97575.00
2022-12-08T00:50:06.190Z,97575.00
2022-12-08T00:50:15.796Z,97575.00
2022-12-08T00:50:25.798Z,97575.00
2022-12-08T00:50:37.239Z,97573.00
2022-12-08T00:50:45.826Z,97577.00
2022-12-08T00:50:55.809Z,97575.00
2022-12-08T00:51:05.789Z,97573.00
2022-12-08T00:51:17.274Z,97575.00
2022-12-08T00:51:25.799Z,97573.00
2022-12-08T00:51:37.226Z,97573.00
2022-12-08T00:51:45.788Z,97573.00
2022-12-08T00:51:55.816Z,97571.00
2022-12-08T00:52:05.794Z,97573.00
2022-12-08T00:52:15.849Z,97569.00
2022-12-08T00:52:25.770Z,97573.00
2022-12-08T00:52:35.784Z,97571.00
2022-12-08T00:52:45.809Z,97571.00
2022-12-08T00:52:55.776Z,97569.00
2022-12-08T00:53:06.549Z,97569.00
2022-12-08T00:53:17.223Z,97569.00
2022-12-08T00:53:25.768Z,97571.00
2022-12-08T00:53:35.790Z,97569.00
2022-12-08T00:53:45.779Z,97569.00
2022-12-08T00:53:56.102Z,97569.00
2022-12-08T00:54:06.141Z,97569.00
2022-12-08T00:54:15.742Z,97569.00
2022-12-08T00:54:27.219Z,97567.00
2022-12-08T00:54:36.238Z,97569.00
2022-12-08T00:54:45.981Z,97565.00
2022-12-08T00:54:55.747Z,97567.00
2022-12-08T00:55:06.139Z,97567.00
2022-12-08T00:55:16.179Z,97569.00
2022-12-08T00:55:26.211Z,97565.00
2022-12-08T00:55:36.139Z,97567.00
2022-12-08T00:55:46.181Z,97565.00
2022-12-08T00:55:56.224Z,97565.00
2022-12-08T00:56:06.249Z,97565.00
2022-12-08T00:56:16.188Z,97565.00
2022-12-08T00:56:25.724Z,97565.00
2022-12-08T00:56:36.263Z,97567.00
2022-12-08T00:56:45.795Z,97567.00
2022-12-08T00:56:56.698Z,97565.00
2022-12-08T00:57:06.286Z,97565.00
2022-12-08T00:57:16.313Z,97567.00
2022-12-08T00:57:25.720Z,97569.00
2022-12-08T00:57:35.752Z,97569.00
2022-12-08T00:57:46.301Z,97565.00
2022-12-08T00:57:55.733Z,97567.00
2022-12-08T00:58:07.198Z,97563.00
2022-12-08T00:58:17.182Z,97565.00
2022-12-08T00:58:26.701Z,97569.00
2022-12-08T00:58:35.751Z,97569.00
2022-12-08T00:58:45.720Z,97569.00
2022-12-08T00:58:55.719Z,97569.00
2022-12-08T00:59:06.495Z,97569.00
2022-12-08T00:59:15.733Z,97569.00
2022-12-08T00:59:27.159Z,97567.00
2022-12-08T00:59:37.199Z,97567.00
2022-12-08T00:59:45.774Z,97567.00
2022-12-08T00:59:55.738Z,97569.00
2022-12-08T01:00:06.118Z,97567.00
2022-12-08T01:00:15.727Z,97567.00
2022-12-08T01:00:25.753Z,97567.00
2022-12-08T01:00:35.911Z,97565.00
2022-12-08T01:00:45.817Z,97567.00
2022-12-08T01:00:55.753Z,97567.00
2022-12-08T01:01:05.815Z,97565.00
2022-12-08T01:01:16.628Z,97567.00
2022-12-08T01:01:25.866Z,97569.00
2022-12-08T01:01:35.811Z,97569.00
2022-12-08T01:01:47.172Z,97571.00
2022-12-08T01:01:55.729Z,97565.00
2022-12-08T01:02:05.711Z,97569.00
2022-12-08T01:02:17.160Z,97569.00
2022-12-08T01:02:25.701Z,97571.00
2022-12-08T01:02:35.790Z,97569.00
2022-12-08T01:02:47.261Z,97571.00
2022-12-08T01:02:55.791Z,97571.00
2022-12-08T01:03:07.182Z,97567.00
2022-12-08T01:03:15.776Z,97569.00
2022-12-08T01:03:25.799Z,97571.00
2022-12-08T01:03:37.222Z,97571.00
2022-12-08T01:03:45.733Z,97573.00
2022-12-08T01:03:55.701Z,97569.00
2022-12-08T01:04:07.162Z,97569.00
2022-12-08T01:04:15.712Z,97567.00
2022-12-08T01:04:25.983Z,97571.00
2022-12-08T01:04:35.677Z,97567.00
2022-12-08T01:04:45.692Z,97571.00
2022-12-08T01:04:55.728Z,97571.00
2022-12-08T01:05:05.751Z,97571.00
2022-12-08T01:05:15.671Z,97571.00
2022-12-08T01:05:26.647Z,97571.00
2022-12-08T01:05:35.682Z,97571.00
2022-12-08T01:05:45.698Z,97569.00
2022-12-08T01:05:55.715Z,97571.00
2022-12-08T01:06:05.690Z,97569.00
2022-12-08T01:06:15.747Z,97571.00
2022-12-08T01:06:25.679Z,97571.00
2022-12-08T01:06:35.689Z,97571.00
2022-12-08T01:06:47.141Z,97569.00
2022-12-08T01:06:57.133Z,97565.00
2022-12-08T01:07:06.642Z,97571.00
2022-12-08T01:07:15.699Z,97569.00
2022-12-08T01:07:25.680Z,97569.00
2022-12-08T01:07:35.737Z,97569.00
2022-12-08T01:07:47.208Z,97569.00
2022-12-08T01:07:55.751Z,97571.00
2022-12-08T01:08:07.213Z,97571.00
2022-12-08T01:08:15.760Z,97569.00
2022-12-08T01:08:25.709Z,97569.00
2022-12-08T01:08:35.670Z,97571.00
2022-12-08T01:08:47.131Z,97569.00
2022-12-08T01:08:57.112Z,97567.00
2022-12-08T01:09:06.630Z,97569.00
2022-12-08T01:09:15.663Z,97567.00
2022-12-08T01:09:27.109Z,97567.00
2022-12-08T01:09:35.652Z,97569.00
2022-12-08T01:09:45.698Z,97571.00
2022-12-08T01:09:57.092Z,97569.00
2022-12-08T01:10:05.953Z,97571.00
2022-12-08T01:10:15.661Z,97571.00
2022-12-08T01:10:27.126Z,97569.00
2022-12-08T01:10:37.092Z,97565.00
2022-12-08T01:10:45.632Z,97569.00
2022-12-08T01:10:57.120Z,97565.00
2022-12-08T01:11:07.111Z,97565.00
2022-12-08T01:11:15.641Z,97565.00
2022-12-08T01:11:25.658Z,97565.00
2022-12-08T01:11:37.112Z,97565.00
2022-12-08T01:11:45.626Z,97565.00
2022-12-08T01:11:55.622Z,97569.00
2022-12-08T01:12:07.090Z,97563.00
2022-12-08T01:12:15.642Z,97565.00
2022-12-08T01:12:25.632Z,97567.00
2022-12-08T01:12:35.650Z,97567.00
2022-12-08T01:12:45.645Z,97567.00
2022-12-08T01:12:55.640Z,97565.00
2022-12-08T01:13:05.644Z,97567.00
2022-12-08T01:13:15.621Z,97565.00
2022-12-08T01:13:25.621Z,97567.00
2022-12-08T01:13:35.642Z,97569.00
2022-12-08T01:13:47.089Z,97571.00
2022-12-08T01:13:55.651Z,97567.00
2022-12-08T01:14:07.071Z,97569.00
2022-12-08T01:14:15.644Z,97567.00
2022-12-08T01:14:26.554Z,97567.00
2022-12-08T01:14:37.085Z,97565.00
2022-12-08T01:14:45.611Z,97567.00
2022-12-08T01:15:00.628Z,97565.00
2022-12-08T01:15:05.643Z,97565.00
2022-12-08T01:15:15.623Z,97565.00
2022-12-08T01:15:25.737Z,97563.00
2022-12-08T01:15:37.053Z,97563.00
2022-12-08T01:15:46.123Z,97563.00
2022-12-08T01:15:56.158Z,97563.00
2022-12-08T01:16:05.582Z,97561.00
2022-12-08T01:16:15.641Z,97561.00
2022-12-08T01:16:26.205Z,97559.00
2022-12-08T01:16:35.693Z,97559.00
2022-12-08T01:16:45.833Z,97563.00
2022-12-08T01:16:56.197Z,97561.00
2022-12-08T01:17:06.303Z,97561.00
2022-12-08T01:17:15.622Z,97561.00
2022-12-08T01:17:26.255Z,97563.00
2022-12-08T01:17:36.012Z,97563.00
2022-12-08T01:17:46.222Z,97563.00
2022-12-08T01:17:55.700Z,97561.00
2022-12-08T01:18:06.295Z,97561.00
2022-12-08T01:18:15.584Z,97563.00
2022-12-08T01:18:25.655Z,97563.00
2022-12-08T01:18:36.300Z,97559.00
2022-12-08T01:18:46.338Z,97559.00
2022-12-08T01:18:55.863Z,97557.00
2022-12-08T01:19:05.864Z,97559.00
2022-12-08T01:19:15.631Z,97559.00
2022-12-08T01:19:26.374Z,97557.00
2022-12-08T01:19:36.315Z,97559.00
2022-12-08T01:19:46.344Z,97561.00
2022-12-08T01:19:55.580Z,97557.00
2022-12-08T01:20:06.490Z,97561.00
2022-12-08T01:20:16.460Z,97557.00
2022-12-08T01:20:26.383Z,97561.00
2022-12-08T01:20:36.429Z,97559.00
2022-12-08T01:20:45.642Z,97555.00
2022-12-08T01:20:55.585Z,97565.00
2022-12-08T01:21:06.414Z,97565.00
2022-12-08T01:21:16.454Z,97559.00
2022-12-08T01:21:26.393Z,97563.00
2022-12-08T01:21:36.524Z,97565.00
2022-12-08T01:21:45.551Z,97563.00
2022-12-08T01:21:56.383Z,97563.00
2022-12-08T01:22:06.423Z,97563.00
2022-12-08T01:22:15.554Z,97563.00
2022-12-08T01:22:25.575Z,97561.00
2022-12-08T01:22:35.576Z,97561.00
2022-12-08T01:22:45.562Z,97565.00
2022-12-08T01:22:55.584Z,97563.00
2022-12-08T01:23:05.574Z,97565.00
2022-12-08T01:23:15.552Z,97567.00
2022-12-08T01:23:25.586Z,97563.00
2022-12-08T01:23:35.540Z,97563.00
2022-12-08T01:23:45.545Z,97563.00
2022-12-08T01:23:57.023Z,97563.00
2022-12-08T01:24:05.625Z,97565.00
2022-12-08T01:24:15.533Z,97565.00
2022-12-08T01:24:25.584Z,97563.00
2022-12-08T01:24:35.533Z,97565.00
2022-12-08T01:24:45.555Z,97563.00
2022-12-08T01:24:55.606Z,97563.00
2022-12-08T01:25:05.626Z,97561.00
2022-12-08T01:25:15.563Z,97565.00
2022-12-08T01:25:25.678Z,97565.00
2022-12-08T01:25:35.640Z,97565.00
2022-12-08T01:25:45.583Z,97565.00
2022-12-08T01:25:55.603Z,97563.00
2022-12-08T01:26:05.634Z,97563.00
2022-12-08T01:26:15.714Z,97567.00
2022-12-08T01:26:25.704Z,97565.00
2022-12-08T01:26:35.637Z,97565.00
2022-12-08T01:26:46.975Z,97563.00
2022-12-08T01:26:56.494Z,97563.00
2022-12-08T01:27:05.648Z,97565.00
2022-12-08T01:27:15.523Z,97563.00
2022-12-08T01:27:25.534Z,97561.00
2022-12-08T01:27:35.551Z,97561.00
2022-12-08T01:27:45.685Z,97563.00
2022-12-08T01:27:55.545Z,97563.00
2022-12-08T01:28:05.544Z,97563.00
2022-12-08T01:28:15.521Z,97565.00
2022-12-08T01:28:25.532Z,97567.00
2022-12-08T01:28:36.997Z,97563.00
2022-12-08T01:28:46.474Z,97565.00
2022-12-08T01:28:55.523Z,97565.00
2022-12-08T01:29:05.522Z,97565.00
2022-12-08T01:29:16.985Z,97565.00
2022-12-08T01:29:26.982Z,97565.00
2022-12-08T01:29:36.964Z,97565.00
2022-12-08T01:29:45.524Z,97565.00
2022-12-08T01:29:55.545Z,97563.00
2022-12-08T01:30:07.250Z,97565.00
2022-12-08T01:30:15.525Z,97567.00
2022-12-08T01:30:26.593Z,97567.00
2022-12-08T01:30:35.543Z,97567.00
2022-12-08T01:30:47.024Z,97565.00
2022-12-08T01:30:57.012Z,97565.00
2022-12-08T01:31:05.562Z,97569.00
2022-12-08T01:31:17.032Z,97567.00
2022-12-08T01:31:26.550Z,97567.00
2022-12-08T01:31:35.514Z,97561.00
2022-12-08T01:31:45.509Z,97561.00
2022-12-08T01:31:56.999Z,97565.00
2022-12-08T01:32:06.990Z,97567.00
2022-12-08T01:32:16.454Z,97569.00
2022-12-08T01:32:25.545Z,97567.00
2022-12-08T01:32:35.496Z,97567.00
2022-12-08T01:32:45.504Z,97569.00
2022-12-08T01:32:56.474Z,97567.00
2022-12-08T01:33:05.540Z,97565.00
2022-12-08T01:33:15.505Z,97567.00
2022-12-08T01:33:25.514Z,97567.00
2022-12-08T01:33:36.956Z,97567.00
2022-12-08T01:33:46.485Z,97567.00
2022-12-08T01:33:55.515Z,97565.00
2022-12-08T01:34:05.503Z,97565.00
2022-12-08T01:34:16.974Z,97565.00
2022-12-08T01:34:25.480Z,97565.00
2022-12-08T01:34:35.566Z,97565.00
2022-12-08T01:34:45.496Z,97565.00
2022-12-08T01:34:55.868Z,97565.00
2022-12-08T01:35:05.476Z,97563.00
2022-12-08T01:35:15.538Z,97565.00
2022-12-08T01:35:25.476Z,97563.00
2022-12-08T01:35:35.498Z,97563.00
2022-12-08T01:35:45.465Z,97565.00
2022-12-08T01:35:55.513Z,97563.00
2022-12-08T01:36:05.532Z,97563.00
2022-12-08T01:36:16.936Z,97565.00
2022-12-08T01:36:26.914Z,97563.00
2022-12-08T01:36:35.509Z,97567.00
2022-12-08T01:36:46.904Z,97565.00
2022-12-08T01:36:55.474Z,97561.00
2022-12-08T01:37:05.496Z,97565.00
2022-12-08T01:37:15.466Z,97565.00
2022-12-08T01:37:26.923Z,97565.00
2022-12-08T01:37:35.500Z,97565.00
2022-12-08T01:37:46.934Z,97563.00
2022-12-08T01:37:55.466Z,97563.00
2022-12-08T01:38:05.461Z,97565.00
2022-12-08T01:38:15.477Z,97565.00
2022-12-08T01:38:25.467Z,97565.00
2022-12-08T01:38:35.485Z,97563.00
2022-12-08T01:38:45.469Z,97563.00
2022-12-08T01:38:55.526Z,97561.00
2022-12-08T01:39:05.472Z,97561.00
2022-12-08T01:39:16.913Z,97561.00
2022-12-08T01:39:25.476Z,97563.00
2022-12-08T01:39:35.452Z,97565.00
2022-12-08T01:39:45.477Z,97565.00
2022-12-08T01:39:56.915Z,97563.00
2022-12-08T01:40:06.753Z,97563.00
2022-12-08T01:40:15.447Z,97565.00
2022-12-08T01:40:25.549Z,97563.00
2022-12-08T01:40:35.456Z,97563.00
2022-12-08T01:40:46.326Z,97563.00
2022-12-08T01:40:55.445Z,97563.00
2022-12-08T01:41:06.941Z,97563.00
2022-12-08T01:41:15.455Z,97565.00
2022-12-08T01:41:25.463Z,97563.00
2022-12-08T01:41:35.437Z,97563.00
2022-12-08T01:41:46.896Z,97565.00
2022-12-08T01:41:55.445Z,97565.00
2022-12-08T01:42:05.459Z,97563.00
2022-12-08T01:42:15.476Z,97565.00
2022-12-08T01:42:25.457Z,97565.00
2022-12-08T01:42:35.447Z,97565.00
2022-12-08T01:42:45.460Z,97567.00
2022-12-08T01:42:56.864Z,97563.00
2022-12-08T01:43:05.437Z,97563.00
2022-12-08T01:43:15.438Z,97565.00
2022-12-08T01:43:25.460Z,97563.00
2022-12-08T01:43:36.910Z,97565.00
2022-12-08T01:43:45.418Z,97565.00
2022-12-08T01:43:56.878Z,97561.00
2022-12-08T01:44:05.427Z,97565.00
2022-12-08T01:44:15.426Z,97563.00
2022-12-08T01:44:26.887Z,97565.00
2022-12-08T01:44:35.423Z,97563.00
2022-12-08T01:44:45.417Z,97561.00
2022-12-08T01:44:56.844Z,97561.00
2022-12-08T01:45:06.887Z,97561.00
2022-12-08T01:45:15.395Z,97565.00
2022-12-08T01:45:25.554Z,97561.00
2022-12-08T01:45:35.399Z,97561.00
2022-12-08T01:45:46.915Z,97563.00
2022-12-08T01:45:56.910Z,97563.00
2022-12-08T01:46:05.493Z,97563.00
2022-12-08T01:46:16.907Z,97563.00
2022-12-08T01:46:25.439Z,97563.00
2022-12-08T01:46:35.475Z,97563.00
2022-12-08T01:46:46.257Z,97563.00
2022-12-08T01:46:55.418Z,97563.00
2022-12-08T01:47:05.408Z,97563.00
2022-12-08T01:47:16.845Z,97563.00
2022-12-08T01:47:26.199Z,97563.00
2022-12-08T01:47:35.443Z,97563.00
2022-12-08T01:47:46.934Z,97563.00
2022-12-08T01:47:55.417Z,97563.00
2022-12-08T01:48:05.470Z,97563.00
2022-12-08T01:48:16.911Z,97565.00
2022-12-08T01:48:26.886Z,97561.00
2022-12-08T01:48:35.367Z,97565.00
2022-12-08T01:48:46.328Z,97563.00
2022-12-08T01:48:55.419Z,97565.00
2022-12-08T01:49:05.375Z,97567.00
2022-12-08T01:49:16.827Z,97563.00
2022-12-08T01:49:25.387Z,97563.00
2022-12-08T01:49:35.389Z,97567.00
2022-12-08T01:49:46.849Z,97567.00
2022-12-08T01:49:55.767Z,97565.00
2022-12-08T01:50:06.089Z,97565.00
2022-12-08T01:50:15.727Z,97561.00
2022-12-08T01:50:25.428Z,97565.00
2022-12-08T01:50:36.836Z,97559.00
2022-12-08T01:50:45.878Z,97561.00
2022-12-08T01:50:55.369Z,97565.00
2022-12-08T01:51:06.837Z,97565.00
2022-12-08T01:51:15.839Z,97565.00
2022-12-08T01:51:25.348Z,97559.00
2022-12-08T01:51:35.804Z,97557.00
2022-12-08T01:51:45.838Z,97561.00
2022-12-08T01:51:55.769Z,97559.00
2022-12-08T01:52:05.809Z,97559.00
2022-12-08T01:52:15.850Z,97561.00
2022-12-08T01:52:25.878Z,97559.00
2022-12-08T01:52:36.798Z,97559.00
2022-12-08T01:52:45.379Z,97563.00
2022-12-08T01:52:55.381Z,97563.00
2022-12-08T01:53:05.817Z,97563.00
2022-12-08T01:53:16.798Z,97563.00
2022-12-08T01:53:25.888Z,97563.00
2022-12-08T01:53:35.819Z,97565.00
2022-12-08T01:53:45.856Z,97561.00
2022-12-08T01:53:55.778Z,97561.00
2022-12-08T01:54:05.819Z,97563.00
2022-12-08T01:54:15.328Z,97557.00
2022-12-08T01:54:25.897Z,97561.00
2022-12-08T01:54:35.930Z,97563.00
2022-12-08T01:54:45.339Z,97563.00
2022-12-08T01:54:55.390Z,97561.00
2022-12-08T01:55:05.359Z,97561.00
2022-12-08T01:55:16.809Z,97557.00
2022-12-08T01:55:25.708Z,97559.00
2022-12-08T01:55:36.778Z,97563.00
2022-12-08T01:55:45.771Z,97559.00
2022-12-08T01:55:55.337Z,97557.00
2022-12-08T01:56:05.362Z,97563.00
2022-12-08T01:56:16.838Z,97563.00
2022-12-08T01:56:25.357Z,97559.00
2022-12-08T01:56:35.342Z,97561.00
2022-12-08T01:56:45.357Z,97561.00
2022-12-08T01:56:56.796Z,97561.00
2022-12-08T01:57:06.802Z,97561.00
2022-12-08T01:57:15.337Z,97559.00
2022-12-08T01:57:25.351Z,97561.00